| Date | Time | Temp. (oF) | Dew Point (oF) | Rel. Hum. (%) | Press. (in.) | Wind Dir. | Wind Speed (mph) | Hourly Rainfall (in.) |
|
|---|---|---|---|---|---|---|---|---|---|
| 1 | 02/08 | 00:00 | 63 | 53 | 70 | 29.50 | NW | 6 | 0.00 |
| 2 | 02/07 | 23:00 | 62 | 52 | 70 | 29.51 | NW | 16 | 0.00 |
| 3 | 02/07 | 22:00 | 61 | 50 | 69 | 29.52 | NW | 6 | 0.00 |
| 4 | 02/07 | 21:00 | 54 | 49 | 84 | 29.54 | NW | 12 | 0.00 |
| 5 | 02/07 | 20:00 | 50 | 46 | 89 | 29.56 | NW | 3 | 0.00 |
| 6 | 02/07 | 19:00 | 51 | 46 | 85 | 29.58 | NW | 3 | 0.00 |
| 7 | 02/07 | 18:00 | 53 | 47 | 81 | 29.60 | NW | 6 | 0.00 |
| 8 | 02/07 | 17:00 | 57 | 48 | 74 | 29.61 | NW | 7 | 0.00 |
| 9 | 02/07 | 16:00 | 58 | 49 | 72 | 29.63 | NW | 4 | 0.00 |
| 10 | 02/07 | 15:00 | 55 | 47 | 75 | 29.65 | NW | 5 | 0.00 |
| 11 | 02/07 | 14:00 | 55 | 47 | 76 | 29.68 | NW | 3 | 0.00 |
| 12 | 02/07 | 13:00 | 51 | 45 | 82 | 29.74 | NW | 4 | 0.00 |
| 13 | 02/07 | 12:00 | 48 | 46 | 96 | 29.77 | NW | 3 | 0.00 |
| 14 | 02/07 | 11:00 | 45 | 44 | 99 | 29.80 | NW | 0 | 0.01 |
| 15 | 02/07 | 10:00 | 41 | 41 | 100 | 29.81 | NW | 5 | 0.14 |
| 16 | 02/07 | 09:00 | 41 | 40 | 97 | 29.82 | NW | 5 | 0.11 |
| 17 | 02/07 | 08:00 | 42 | 36 | 81 | 29.84 | NW | 2 | 0.00 |
| 18 | 02/07 | 07:00 | 41 | 35 | 80 | 29.84 | NW | 1 | 0.00 |
| 19 | 02/07 | 06:00 | 42 | 35 | 78 | 29.85 | NW | 0 | 0.00 |
| 20 | 02/07 | 05:00 | 43 | 35 | 75 | 29.86 | NW | 1 | 0.00 |
| 21 | 02/07 | 04:00 | 42 | 34 | 75 | 29.88 | NW | 0 | 0.00 |
| 22 | 02/07 | 03:00 | 44 | 35 | 72 | 29.90 | NW | 0 | 0.00 |
| 23 | 02/07 | 02:00 | 44 | 35 | 71 | 29.90 | NW | 1 | 0.00 |
| 24 | 02/07 | 01:00 | 42 | 33 | 73 | 29.92 | NW | 2 | 0.00 |